Time;durP1;ratioP1;P1;durP2;ratioP2;P2;SDS_P1;SDS_P2;PMS_P1;PMS_P2;Temp;Humidity;BMP_temperature;BMP_pressure;BME280_temperature;BME280_humidity;BME280_pressure;Samples;Min_cycle;Max_cycle;Signal;HPM_P1;HPM_P2
2022/04/17 00:01:37;;;;;;;9.80;9.30;;;21.30;41.80;;;;;;5051943;28;20456;-46
2022/04/17 00:04:04;;;;;;;9.00;8.60;;;21.30;41.80;;;;;;5053154;28;20493;-46
2022/04/17 00:06:31;;;;;;;9.40;8.93;;;21.40;41.90;;;;;;5052384;28;20448;-47
2022/04/17 00:08:58;;;;;;;8.37;7.97;;;21.40;41.80;;;;;;5052402;28;20449;-46
2022/04/17 00:11:27;;;;;;;8.60;8.20;;;21.40;41.70;;;;;;5052620;28;20480;-46
2022/04/17 00:13:54;;;;;;;8.60;8.20;;;21.40;41.70;;;;;;5052320;28;20555;-46
2022/04/17 00:16:21;;;;;;;8.70;8.30;;;21.40;41.70;;;;;;5052155;28;20543;-46
2022/04/17 00:18:49;;;;;;;9.43;9.03;;;21.50;41.70;;;;;;5052291;28;20729;-46
2022/04/17 00:21:16;;;;;;;8.00;7.60;;;21.50;41.70;;;;;;5052551;28;20506;-47
2022/04/17 00:23:44;;;;;;;9.17;8.77;;;21.50;41.70;;;;;;5052394;28;20983;-46
2022/04/17 00:26:11;;;;;;;8.50;8.10;;;21.50;41.70;;;;;;5051705;28;20484;-46
2022/04/17 00:28:40;;;;;;;8.37;8.07;;;21.50;41.80;;;;;;5052130;28;20467;-46
2022/04/17 00:31:07;;;;;;;8.57;8.17;;;21.40;41.80;;;;;;5052283;28;20483;-47
2022/04/17 00:33:34;;;;;;;8.17;7.77;;;21.40;41.80;;;;;;5052006;28;20461;-46
2022/04/17 00:36:01;;;;;;;9.80;9.20;;;21.40;41.80;;;;;;5051685;28;20815;-48
2022/04/17 00:38:28;;;;;;;7.77;7.40;;;21.40;41.90;;;;;;5052098;28;20944;-47
2022/04/17 00:40:55;;;;;;;8.33;7.83;;;21.40;41.90;;;;;;5052161;28;20974;-48
2022/04/17 00:43:26;;;;;;;8.63;8.10;;;21.40;41.90;;;;;;5051993;28;20468;-48
2022/04/17 00:45:55;;;;;;;8.93;8.53;;;21.40;42.00;;;;;;5051481;28;20602;-47
2022/04/17 00:48:22;;;;;;;8.30;7.90;;;21.40;42.10;;;;;;5051859;28;20452;-46
2022/04/17 00:50:51;;;;;;;8.20;7.90;;;21.40;42.00;;;;;;5051840;28;20451;-46
2022/04/17 00:53:20;;;;;;;9.47;8.97;;;21.30;42.00;;;;;;5051671;28;20468;-47
2022/04/17 00:55:47;;;;;;;8.10;7.70;;;21.30;42.10;;;;;;5051465;28;20936;-49
2022/04/17 00:58:15;;;;;;;8.40;8.00;;;21.30;42.20;;;;;;5052012;28;20447;-46
2022/04/17 01:00:43;;;;;;;7.93;7.63;;;21.30;42.20;;;;;;5051377;28;20874;-46
2022/04/17 01:03:12;;;;;;;8.33;8.00;;;21.30;42.30;;;;;;5051487;28;20516;-47
2022/04/17 01:05:42;;;;;;;8.47;8.17;;;21.30;42.30;;;;;;5051199;28;20549;-47
2022/04/17 01:08:10;;;;;;;7.90;7.57;;;21.30;42.40;;;;;;5051605;28;20785;-47
2022/04/17 01:10:37;;;;;;;8.40;8.00;;;21.30;42.40;;;;;;5051548;28;20448;-46
2022/04/17 01:13:04;;;;;;;8.10;7.80;;;21.20;42.40;;;;;;5050331;28;20468;-47
2022/04/17 01:15:32;;;;;;;8.50;8.10;;;21.20;42.50;;;;;;5051153;28;20448;-47
2022/04/17 01:18:00;;;;;;;7.67;7.37;;;21.20;42.50;;;;;;5051334;28;20502;-47
2022/04/17 01:20:28;;;;;;;7.63;7.33;;;21.20;42.50;;;;;;5051329;28;20986;-48
2022/04/17 01:28:23;;;;;;;7.60;7.30;;;21.20;42.60;;;;;;5031507;28;20441;-46
2022/04/17 01:30:53;;;;;;;7.47;7.17;;;21.10;42.60;;;;;;5031466;28;20468;-47
2022/04/17 01:33:20;;;;;;;7.87;7.47;;;21.10;42.70;;;;;;5034264;28;20475;-47
2022/04/17 01:35:47;;;;;;;7.50;7.20;;;21.10;42.70;;;;;;5051178;28;20452;-48
2022/04/17 01:38:16;;;;;;;7.97;7.67;;;21.10;42.70;;;;;;5051446;28;20451;-48
2022/04/17 01:40:43;;;;;;;7.40;7.10;;;21.10;42.80;;;;;;5051242;28;20535;-47
2022/04/17 01:43:10;;;;;;;8.43;7.97;;;21.10;42.90;;;;;;5051003;28;20548;-47
2022/04/17 01:45:38;;;;;;;8.07;7.77;;;21.00;42.80;;;;;;5051378;28;20480;-46
2022/04/17 01:48:06;;;;;;;7.63;7.23;;;21.00;42.80;;;;;;5051136;28;20995;-47
2022/04/17 01:50:33;;;;;;;7.27;6.97;;;21.00;42.90;;;;;;5050889;28;20452;-46
2022/04/17 01:53:00;;;;;;;8.10;7.60;;;21.00;42.90;;;;;;5051048;28;20561;-48
2022/04/17 01:55:29;;;;;;;7.07;6.87;;;21.00;43.00;;;;;;5051133;28;20440;-47
2022/04/17 01:57:57;;;;;;;6.87;6.60;;;21.00;43.00;;;;;;5051059;28;20471;-46
2022/04/17 02:00:25;;;;;;;6.70;6.50;;;21.00;43.00;;;;;;5050946;28;20452;-48
2022/04/17 02:02:53;;;;;;;7.23;6.93;;;21.00;43.00;;;;;;5051070;28;20543;-46
2022/04/17 02:05:20;;;;;;;7.03;6.83;;;21.00;43.10;;;;;;5051100;28;20577;-47
2022/04/17 02:07:47;;;;;;;7.60;7.30;;;21.00;43.10;;;;;;5050955;28;20476;-46
2022/04/17 02:10:19;;;;;;;7.70;7.40;;;21.00;43.20;;;;;;5050731;28;20452;-46
2022/04/17 02:12:48;;;;;;;7.80;7.50;;;20.90;43.10;;;;;;5050986;28;20472;-47
2022/04/17 02:15:16;;;;;;;6.80;6.60;;;20.90;43.20;;;;;;5050906;28;20476;-47
2022/04/17 02:17:43;;;;;;;7.70;7.40;;;20.90;43.20;;;;;;5050804;28;20452;-47
2022/04/17 02:20:11;;;;;;;7.40;7.00;;;20.90;43.20;;;;;;5050979;28;20531;-46
2022/04/17 02:22:39;;;;;;;7.10;6.70;;;20.90;43.30;;;;;;5050886;28;20467;-49
2022/04/17 02:25:06;;;;;;;7.23;6.93;;;20.90;43.30;;;;;;5053217;28;20484;-46
2022/04/17 02:27:34;;;;;;;7.20;6.90;;;20.90;43.30;;;;;;5054321;28;20545;-48
2022/04/17 02:30:02;;;;;;;7.77;7.37;;;20.90;43.40;;;;;;5054248;28;20498;-48
2022/04/17 02:32:29;;;;;;;7.00;6.80;;;20.90;43.40;;;;;;5054473;28;20858;-47
2022/04/17 02:34:56;;;;;;;6.50;6.30;;;20.90;43.40;;;;;;5054601;28;20436;-46
2022/04/17 02:37:23;;;;;;;7.33;7.13;;;20.90;43.40;;;;;;5054116;28;20535;-47
2022/04/17 02:39:50;;;;;;;6.70;6.50;;;20.90;43.40;;;;;;5053961;28;20820;-47
2022/04/17 02:42:17;;;;;;;7.03;6.83;;;20.90;43.40;;;;;;5054164;28;20476;-46
2022/04/17 02:44:44;;;;;;;7.20;7.00;;;20.90;43.30;;;;;;5054146;28;20832;-46
2022/04/17 02:49:57;;;;;;;7.30;7.00;;;21.00;43.30;;;;;;5054128;28;20436;-47
2022/04/17 02:52:25;;;;;;;6.60;6.40;;;21.00;43.30;;;;;;5054165;28;20445;-48
2022/04/17 02:54:53;;;;;;;6.70;6.50;;;21.00;43.20;;;;;;5054078;28;20949;-46
2022/04/17 02:57:21;;;;;;;6.20;6.00;;;21.00;43.10;;;;;;5053665;28;20460;-47
2022/04/17 02:59:48;;;;;;;6.67;6.47;;;21.10;43.10;;;;;;5053617;28;20891;-46
2022/04/17 03:07:45;;;;;;;7.00;6.80;;;21.10;43.10;;;;;;5053822;28;20415;-46
2022/04/17 03:10:12;;;;;;;7.00;6.80;;;21.10;43.10;;;;;;5053282;28;21013;-47
2022/04/17 03:12:39;;;;;;;6.20;6.10;;;21.10;43.10;;;;;;5053507;28;20450;-46
2022/04/17 03:15:07;;;;;;;6.83;6.60;;;21.10;43.10;;;;;;5053475;28;20501;-50
2022/04/17 03:17:35;;;;;;;6.10;6.00;;;21.10;43.20;;;;;;5053372;28;20444;-46
2022/04/17 03:20:03;;;;;;;7.77;7.43;;;21.00;43.10;;;;;;5053285;28;20451;-49
2022/04/17 03:22:30;;;;;;;6.00;5.87;;;21.00;43.10;;;;;;5053427;28;20448;-46
2022/04/17 03:24:57;;;;;;;6.73;6.50;;;21.00;43.20;;;;;;5053391;28;20448;-47
2022/04/17 03:27:23;;;;;;;6.97;6.70;;;21.00;43.20;;;;;;5053217;28;20440;-47
2022/04/17 03:29:50;;;;;;;6.50;6.30;;;21.00;43.30;;;;;;5053018;28;20444;-46
2022/04/17 03:32:17;;;;;;;6.63;6.43;;;21.00;43.30;;;;;;5053268;28;20448;-47
2022/04/17 03:34:45;;;;;;;6.57;6.30;;;21.00;43.30;;;;;;5053209;28;20472;-46
2022/04/17 03:37:11;;;;;;;6.67;6.47;;;21.00;43.30;;;;;;5052043;28;20512;-46
2022/04/17 03:39:38;;;;;;;6.87;6.57;;;21.00;43.30;;;;;;5052718;28;20444;-46
2022/04/17 03:42:05;;;;;;;6.70;6.50;;;21.00;43.40;;;;;;5053329;28;20448;-49
2022/04/17 03:44:33;;;;;;;6.43;6.23;;;20.90;43.40;;;;;;5052835;28;20476;-48
2022/04/17 03:46:59;;;;;;;6.57;6.37;;;20.90;43.40;;;;;;5052900;28;20480;-47
2022/04/17 03:49:27;;;;;;;6.40;6.20;;;20.90;43.50;;;;;;5052488;28;20978;-49
2022/04/17 03:51:55;;;;;;;6.30;6.10;;;20.90;43.50;;;;;;5052624;28;20449;-49
2022/04/17 03:54:21;;;;;;;6.93;6.73;;;20.90;43.50;;;;;;5053115;28;20465;-48
2022/04/17 03:56:48;;;;;;;6.57;6.37;;;20.90;43.50;;;;;;5052587;28;20444;-50
2022/04/17 03:59:15;;;;;;;7.00;6.70;;;20.80;43.50;;;;;;5052499;28;20824;-47
2022/04/17 04:01:42;;;;;;;6.90;6.70;;;20.80;43.50;;;;;;5052975;28;20437;-48
2022/04/17 04:04:08;;;;;;;7.07;6.87;;;20.80;43.50;;;;;;5052442;28;20507;-48
2022/04/17 04:06:35;;;;;;;6.80;6.60;;;20.80;43.60;;;;;;5052219;28;20480;-49
2022/04/17 04:09:03;;;;;;;6.77;6.57;;;20.80;43.60;;;;;;5052335;28;20448;-47
2022/04/17 04:11:30;;;;;;;6.60;6.40;;;20.80;43.60;;;;;;5052408;28;20447;-47
2022/04/17 04:13:57;;;;;;;7.23;7.03;;;20.80;43.70;;;;;;5052295;28;20464;-47
2022/04/17 04:16:24;;;;;;;6.50;6.40;;;20.70;43.60;;;;;;5052333;28;20436;-47
2022/04/17 04:18:50;;;;;;;7.93;7.63;;;20.70;43.70;;;;;;5052272;28;20820;-46
2022/04/17 04:21:17;;;;;;;6.70;6.50;;;20.70;43.70;;;;;;5052423;28;20445;-48
2022/04/17 04:23:44;;;;;;;6.67;6.47;;;20.70;43.70;;;;;;5052316;28;20468;-47
2022/04/17 04:26:12;;;;;;;7.00;6.80;;;20.70;43.70;;;;;;5051899;28;20849;-46
2022/04/17 04:28:38;;;;;;;7.10;6.70;;;20.70;43.80;;;;;;5051921;28;20449;-49
2022/04/17 04:31:06;;;;;;;6.90;6.70;;;20.70;43.80;;;;;;5052126;28;20444;-46
2022/04/17 04:33:33;;;;;;;6.50;6.30;;;20.70;43.80;;;;;;5052543;28;20222;-63
2022/04/17 04:36:00;;;;;;;6.37;6.17;;;20.70;44.00;;;;;;5052678;28;20440;-62
2022/04/17 04:38:28;;;;;;;6.67;6.47;;;20.80;44.10;;;;;;5052233;28;20466;-50
2022/04/17 04:40:55;;;;;;;6.37;6.27;;;20.80;44.20;;;;;;5051870;28;20452;-49
2022/04/17 04:43:23;;;;;;;6.73;6.53;;;20.80;44.20;;;;;;5052245;28;20967;-50
2022/04/17 04:46:08;;;;;;;6.90;6.60;;;20.80;44.20;;;;;;5052242;28;20487;-49
2022/04/17 04:51:20;;;;;;;6.30;6.10;;;20.90;44.20;;;;;;5032332;28;20924;-52
2022/04/17 04:53:47;;;;;;;6.60;6.40;;;20.90;44.10;;;;;;5032173;28;20496;-50
2022/04/17 04:56:13;;;;;;;6.53;6.27;;;20.90;44.10;;;;;;5031849;28;20437;-51
2022/04/17 04:58:42;;;;;;;9.63;9.13;;;20.80;44.10;;;;;;5046214;28;21002;-48
2022/04/17 05:01:09;;;;;;;6.80;6.60;;;20.90;44.10;;;;;;5051599;28;20832;-51
2022/04/17 05:03:36;;;;;;;6.60;6.40;;;21.00;44.10;;;;;;5051624;28;20503;-51
2022/04/17 05:06:03;;;;;;;6.53;6.33;;;21.30;43.80;;;;;;5051423;28;20488;-52
2022/04/17 05:08:30;;;;;;;7.47;7.17;;;21.50;43.30;;;;;;5051500;28;20452;-52
2022/04/17 05:10:57;;;;;;;7.20;7.00;;;21.70;43.10;;;;;;5051623;28;20832;-48
2022/04/17 05:13:23;;;;;;;6.53;6.33;;;22.00;42.70;;;;;;5051572;28;20475;-56
2022/04/17 05:15:52;;;;;;;6.80;6.60;;;22.30;42.40;;;;;;5051373;28;20489;-58
2022/04/17 05:18:18;;;;;;;7.30;7.10;;;22.50;42.00;;;;;;5051310;28;20532;-60
2022/04/17 05:20:45;;;;;;;6.27;6.17;;;22.70;41.70;;;;;;5051812;28;20444;-57
2022/04/17 05:23:19;;;;;;;6.67;6.47;;;22.80;41.40;;;;;;5051468;28;21034;-58
2022/04/17 05:25:48;;;;;;;6.80;6.60;;;22.90;41.30;;;;;;5051379;28;20483;-61
2022/04/17 05:28:15;;;;;;;6.40;6.30;;;23.00;41.30;;;;;;5051205;28;20448;-62
2022/04/17 05:30:42;;;;;;;6.63;6.33;;;23.10;41.10;;;;;;5051449;28;20453;-59
2022/04/17 05:33:11;;;;;;;6.53;6.33;;;23.20;41.30;;;;;;5051335;28;20498;-59
2022/04/17 05:35:38;;;;;;;7.37;7.17;;;23.30;41.20;;;;;;5051328;28;20448;-61
2022/04/17 05:38:06;;;;;;;7.07;6.87;;;23.40;41.00;;;;;;5051219;28;20448;-49
2022/04/17 05:40:36;;;;;;;6.90;6.70;;;23.40;40.70;;;;;;5050972;28;20452;-50
2022/04/17 05:43:03;;;;;;;6.67;6.57;;;23.50;40.60;;;;;;5051255;28;20491;-49
2022/04/17 05:45:30;;;;;;;6.70;6.50;;;23.60;40.60;;;;;;5050975;28;20448;-50
2022/04/17 05:47:58;;;;;;;6.50;6.30;;;23.60;40.50;;;;;;5050943;28;20906;-52
2022/04/17 05:50:27;;;;;;;7.07;6.90;;;23.70;40.40;;;;;;5051383;28;20475;-51
2022/04/17 05:52:54;;;;;;;7.10;6.90;;;23.80;40.40;;;;;;5051487;28;20460;-53
2022/04/17 05:55:21;;;;;;;7.17;7.00;;;23.90;40.40;;;;;;5051110;28;20502;-50
2022/04/17 05:57:48;;;;;;;6.83;6.63;;;24.10;40.10;;;;;;5050852;28;20437;-49
2022/04/17 06:00:16;;;;;;;7.10;6.90;;;24.20;40.00;;;;;;5053784;28;20448;-53
2022/04/17 06:02:46;;;;;;;7.03;6.83;;;24.20;39.80;;;;;;5055465;28;20470;-56
2022/04/17 06:05:14;;;;;;;7.80;7.60;;;24.30;39.70;;;;;;5056134;28;20441;-54
2022/04/17 06:07:42;;;;;;;7.50;7.30;;;24.30;39.60;;;;;;5055603;28;20476;-59
2022/04/17 06:10:11;;;;;;;7.33;7.13;;;24.40;39.60;;;;;;5056732;28;20459;-54
2022/04/17 06:12:39;;;;;;;7.57;7.23;;;24.50;39.60;;;;;;5056244;28;20448;-55
2022/04/17 06:15:07;;;;;;;7.17;6.97;;;24.50;39.50;;;;;;5056848;28;20451;-57
2022/04/17 06:17:38;;;;;;;7.60;7.40;;;24.50;39.40;;;;;;5057062;28;20437;-57
2022/04/17 06:20:06;;;;;;;7.00;6.80;;;24.50;39.40;;;;;;5055817;28;20448;-55
2022/04/17 06:22:34;;;;;;;7.90;7.70;;;24.50;39.40;;;;;;5055014;28;20484;-53
2022/04/17 06:25:04;;;;;;;7.60;7.40;;;24.50;39.40;;;;;;5055449;28;20870;-56
2022/04/17 06:27:37;;;;;;;7.90;7.70;;;24.50;39.40;;;;;;5055726;28;20490;-58
2022/04/17 06:30:08;;;;;;;7.57;7.47;;;24.50;39.40;;;;;;5055561;28;20441;-47
2022/04/17 06:32:35;;;;;;;7.70;7.50;;;24.50;39.60;;;;;;5054539;28;20459;-55
2022/04/17 06:35:02;;;;;;;7.83;7.63;;;24.40;39.50;;;;;;5054347;28;20444;-46
2022/04/17 06:37:28;;;;;;;7.40;7.10;;;24.60;39.70;;;;;;5054017;28;20445;-55
2022/04/17 06:39:57;;;;;;;7.40;7.23;;;24.70;39.60;;;;;;5054280;28;20452;-62
2022/04/17 06:42:25;;;;;;;7.83;7.63;;;24.80;39.60;;;;;;5054440;28;20868;-58
2022/04/17 06:44:52;;;;;;;7.67;7.47;;;24.90;39.30;;;;;;5053839;28;20452;-60
2022/04/17 06:47:19;;;;;;;7.60;7.40;;;25.00;39.20;;;;;;5053773;28;20879;-56
2022/04/17 06:49:46;;;;;;;8.47;8.27;;;25.00;39.20;;;;;;5053529;28;20523;-62
2022/04/17 06:52:13;;;;;;;7.70;7.50;;;25.10;39.20;;;;;;5054192;28;20506;-46
2022/04/17 06:54:40;;;;;;;7.53;7.43;;;25.10;39.10;;;;;;5053705;28;20971;-46
2022/04/17 06:57:07;;;;;;;7.40;7.10;;;25.10;39.30;;;;;;5053607;28;20852;-47
2022/04/17 06:59:35;;;;;;;8.20;8.00;;;25.20;39.20;;;;;;5053971;28;20561;-48
2022/04/17 07:02:02;;;;;;;7.90;7.70;;;25.20;39.50;;;;;;5053943;28;20475;-46
2022/04/17 07:04:29;;;;;;;6.80;6.60;;;25.20;39.40;;;;;;5053570;28;20507;-46
2022/04/17 07:06:56;;;;;;;7.30;7.10;;;25.20;39.20;;;;;;5053659;28;20516;-46
2022/04/17 07:09:23;;;;;;;6.83;6.63;;;25.00;39.10;;;;;;5053861;28;20452;-46
2022/04/17 07:11:50;;;;;;;6.80;6.60;;;25.00;39.50;;;;;;5053685;28;20452;-47
2022/04/17 07:14:18;;;;;;;6.80;6.70;;;24.90;39.50;;;;;;5053937;28;20585;-47
2022/04/17 07:16:47;;;;;;;6.67;6.57;;;25.00;39.50;;;;;;5053632;28;20456;-46
2022/04/17 07:19:16;;;;;;;7.67;7.47;;;25.20;39.40;;;;;;5053782;28;20440;-47
2022/04/17 07:21:43;;;;;;;6.53;6.43;;;25.30;39.10;;;;;;5053515;28;20555;-47
2022/04/17 07:24:09;;;;;;;6.87;6.77;;;25.30;38.90;;;;;;5053075;28;20468;-46
2022/04/17 07:26:36;;;;;;;7.03;6.93;;;25.20;38.90;;;;;;5053587;28;20484;-48
2022/04/17 07:29:03;;;;;;;13.10;8.27;;;25.20;39.10;;;;;;5052842;28;20471;-48
2022/04/17 07:31:30;;;;;;;6.77;6.60;;;25.20;39.30;;;;;;5052973;28;20460;-49
2022/04/17 07:33:58;;;;;;;6.80;6.60;;;25.30;39.40;;;;;;5053274;28;20468;-45
2022/04/17 07:36:25;;;;;;;8.63;8.27;;;25.50;39.40;;;;;;5053350;28;20440;-47
2022/04/17 07:38:52;;;;;;;7.47;7.17;;;25.60;39.30;;;;;;5053020;28;20437;-46
2022/04/17 07:41:19;;;;;;;7.03;6.83;;;25.70;39.50;;;;;;5053160;28;20958;-47
2022/04/17 07:43:45;;;;;;;7.60;7.40;;;25.70;39.10;;;;;;5053517;28;20461;-45
2022/04/17 07:46:12;;;;;;;7.70;7.50;;;25.60;39.00;;;;;;5053654;28;20939;-46
2022/04/17 07:48:39;;;;;;;6.67;6.50;;;25.60;39.10;;;;;;5052721;28;20448;-45
2022/04/17 07:51:07;;;;;;;7.73;7.43;;;25.70;39.10;;;;;;5053017;28;20447;-60
2022/04/17 07:53:34;;;;;;;7.00;6.80;;;25.70;39.40;;;;;;5052619;28;20839;-57
2022/04/17 07:56:01;;;;;;;7.30;7.10;;;25.70;39.40;;;;;;5052578;28;20444;-60
2022/04/17 07:58:34;;;;;;;7.23;7.03;;;25.70;39.40;;;;;;5052593;28;20527;-49
2022/04/17 08:01:10;;;;;;;7.87;7.67;;;25.70;39.40;;;;;;5053063;28;20543;-49
2022/04/17 08:03:46;;;;;;;6.70;6.60;;;25.70;39.60;;;;;;5052588;28;20482;-49
2022/04/17 08:06:20;;;;;;;6.60;6.40;;;25.90;39.40;;;;;;5052333;28;20946;-49
2022/04/17 08:08:50;;;;;;;7.13;6.93;;;25.90;39.30;;;;;;5032719;28;20857;-57
2022/04/17 08:11:18;;;;;;;7.27;7.07;;;25.90;39.50;;;;;;5042527;28;20453;-46
2022/04/17 08:13:46;;;;;;;7.73;7.53;;;25.90;38.80;;;;;;5051999;28;20469;-46
2022/04/17 08:16:14;;;;;;;7.70;7.50;;;25.80;39.00;;;;;;5053578;28;20453;-51
2022/04/17 08:18:41;;;;;;;7.40;7.20;;;25.90;39.30;;;;;;5055209;28;20444;-54
2022/04/17 08:21:07;;;;;;;7.03;6.90;;;25.80;38.80;;;;;;5052585;28;20467;-45
2022/04/17 08:23:37;;;;;;;6.93;6.70;;;25.70;38.80;;;;;;5051554;28;20468;-45
2022/04/17 08:26:05;;;;;;;6.47;6.37;;;25.70;38.90;;;;;;5051519;28;20457;-47
2022/04/17 08:28:32;;;;;;;6.80;6.50;;;25.60;39.00;;;;;;5052008;28;20472;-47
2022/04/17 08:30:59;;;;;;;6.90;6.80;;;25.50;39.10;;;;;;5052132;28;20924;-44
2022/04/17 08:33:26;;;;;;;5.80;5.70;;;25.50;39.20;;;;;;5052403;28;20476;-46
2022/04/17 08:35:53;;;;;;;7.07;6.87;;;25.50;39.40;;;;;;5052044;28;20944;-47
2022/04/17 08:38:21;;;;;;;6.83;6.63;;;25.60;39.30;;;;;;5051871;28;20444;-50
2022/04/17 08:40:50;;;;;;;7.63;7.43;;;25.70;39.30;;;;;;5053349;28;20478;-47
2022/04/17 08:43:21;;;;;;;7.40;7.20;;;25.60;39.40;;;;;;5031833;28;20469;-50
2022/04/17 08:45:50;;;;;;;8.87;8.67;;;25.60;39.40;;;;;;5031824;28;20485;-50
2022/04/17 08:48:18;;;;;;;9.43;9.00;;;25.50;39.70;;;;;;5032040;28;20481;-48
2022/04/17 08:50:47;;;;;;;7.30;7.10;;;25.50;39.70;;;;;;5032254;28;20449;-47
2022/04/17 08:53:16;;;;;;;6.43;6.33;;;25.50;39.60;;;;;;5051656;28;20472;-51
2022/04/17 08:55:43;;;;;;;7.10;6.90;;;25.50;39.70;;;;;;5051688;28;20506;-49
2022/04/17 08:58:12;;;;;;;7.20;6.93;;;25.50;39.70;;;;;;5051745;28;20455;-56
2022/04/17 09:00:39;;;;;;;6.63;6.43;;;25.60;39.60;;;;;;5051843;28;20506;-48
2022/04/17 09:03:08;;;;;;;6.73;6.53;;;25.60;39.60;;;;;;5051560;28;20481;-50
2022/04/17 09:05:37;;;;;;;6.90;6.70;;;25.60;39.50;;;;;;5051814;28;20440;-48
2022/04/17 09:08:14;;;;;;;6.50;6.30;;;25.60;39.50;;;;;;5051341;28;20480;-49
2022/04/17 09:10:41;;;;;;;6.70;6.50;;;25.50;39.40;;;;;;5051385;28;20526;-48
2022/04/17 09:13:07;;;;;;;6.47;6.37;;;25.50;39.70;;;;;;5051565;28;20464;-48
2022/04/17 09:15:37;;;;;;;7.37;6.87;;;25.50;39.70;;;;;;5051247;28;20452;-48
2022/04/17 09:18:07;;;;;;;6.80;6.70;;;25.50;39.60;;;;;;5051423;28;20811;-48
2022/04/17 09:20:34;;;;;;;6.73;6.63;;;25.50;39.50;;;;;;5051062;28;20543;-48
2022/04/17 09:23:02;;;;;;;7.90;7.60;;;25.50;39.50;;;;;;5051327;28;20475;-48
2022/04/17 09:25:29;;;;;;;8.23;7.93;;;25.70;39.50;;;;;;5051412;28;20448;-48
2022/04/17 09:27:58;;;;;;;7.60;7.40;;;25.70;39.40;;;;;;5051234;28;20483;-48
2022/04/17 09:30:27;;;;;;;7.07;6.87;;;25.70;39.40;;;;;;5050739;28;20452;-48
2022/04/17 09:32:56;;;;;;;7.50;7.20;;;25.70;39.40;;;;;;5054140;28;20827;-48
2022/04/17 09:35:24;;;;;;;7.47;7.27;;;25.70;39.40;;;;;;5055960;28;20502;-49
2022/04/17 09:37:55;;;;;;;7.60;7.30;;;25.70;39.60;;;;;;5055745;28;20444;-49
2022/04/17 09:40:23;;;;;;;7.60;7.40;;;25.60;39.60;;;;;;5055628;28;20444;-47
2022/04/17 09:42:51;;;;;;;7.43;7.23;;;25.50;39.80;;;;;;5055051;28;20538;-48
2022/04/17 09:45:17;;;;;;;7.40;7.20;;;25.50;40.00;;;;;;5055003;28;20502;-49
2022/04/17 09:47:57;;;;;;;6.83;6.73;;;25.50;40.00;;;;;;5054926;28;20483;-49
2022/04/17 09:50:32;;;;;;;7.33;7.13;;;25.50;40.00;;;;;;5055156;28;20444;-50
2022/04/17 09:53:03;;;;;;;6.60;6.50;;;25.50;40.00;;;;;;5054877;28;20566;-49
2022/04/17 09:55:31;;;;;;;6.30;6.20;;;25.50;40.00;;;;;;5054382;28;21004;-50
2022/04/17 09:57:59;;;;;;;7.43;7.23;;;25.40;40.00;;;;;;5054911;28;20444;-48
2022/04/17 10:00:27;;;;;;;8.27;8.00;;;25.40;40.10;;;;;;5054875;28;20459;-48
2022/04/17 10:02:53;;;;;;;6.83;6.73;;;25.40;40.10;;;;;;5054177;28;20484;-49
2022/04/17 10:05:22;;;;;;;6.90;6.77;;;25.40;40.20;;;;;;5054456;28;20471;-47
2022/04/17 10:07:50;;;;;;;7.13;6.93;;;25.40;40.10;;;;;;5034623;28;20477;-61
2022/04/17 10:10:18;;;;;;;7.20;7.00;;;25.50;40.20;;;;;;5034808;28;20463;-47
2022/04/17 10:12:47;;;;;;;6.40;6.30;;;25.70;40.00;;;;;;5034659;28;20446;-47
2022/04/17 10:15:14;;;;;;;6.33;6.13;;;25.60;39.30;;;;;;5043597;28;20935;-47
2022/04/17 10:17:45;;;;;;;6.40;6.30;;;25.50;38.40;;;;;;5054468;28;20785;-48
2022/04/17 10:20:13;;;;;;;6.83;6.53;;;25.70;38.70;;;;;;5054548;28;20448;-49
2022/04/17 10:22:43;;;;;;;7.00;6.80;;;25.80;38.50;;;;;;5054434;28;20452;-48
2022/04/17 10:25:12;;;;;;;6.47;6.37;;;25.90;38.10;;;;;;5054242;28;20445;-52
2022/04/17 10:27:43;;;;;;;6.70;6.60;;;25.90;37.60;;;;;;5054220;28;20503;-48
2022/04/17 10:30:15;;;;;;;6.33;6.20;;;26.00;37.10;;;;;;5054365;28;20448;-48
2022/04/17 10:33:21;;;;;;;6.70;6.50;;;26.10;36.80;;;;;;5054065;28;20448;-48
2022/04/17 10:36:06;;;;;;;7.17;6.97;;;26.00;36.20;;;;;;5054457;28;20440;-51
2022/04/17 10:38:45;;;;;;;6.90;6.70;;;26.00;36.10;;;;;;5054204;28;20444;-51
2022/04/17 10:41:13;;;;;;;7.40;7.20;;;25.90;36.80;;;;;;5054065;28;20459;-52
2022/04/17 10:43:58;;;;;;;7.17;6.97;;;25.90;37.00;;;;;;5054046;28;20465;-50
2022/04/17 10:46:26;;;;;;;7.03;6.83;;;25.80;37.10;;;;;;5053549;28;21111;-54
2022/04/17 10:48:54;;;;;;;7.67;7.27;;;25.80;37.20;;;;;;5053912;28;20483;-55
2022/04/17 10:51:23;;;;;;;6.40;6.23;;;25.80;37.30;;;;;;5053501;28;20449;-56
2022/04/17 10:54:01;;;;;;;6.60;6.50;;;25.80;37.50;;;;;;5053685;28;20507;-53
2022/04/17 10:56:28;;;;;;;6.20;6.10;;;25.70;37.60;;;;;;5053907;28;20518;-54
2022/04/17 10:58:56;;;;;;;6.00;5.90;;;25.70;37.80;;;;;;5053944;28;20440;-49
2022/04/17 11:01:52;;;;;;;6.97;6.77;;;25.70;38.00;;;;;;5053186;28;20480;-51
2022/04/17 11:04:21;;;;;;;7.63;7.33;;;25.90;38.10;;;;;;5053748;28;20533;-59
2022/04/17 11:06:53;;;;;;;7.43;7.23;;;26.00;37.90;;;;;;5053561;28;20455;-57
2022/04/17 11:09:22;;;;;;;7.60;7.40;;;26.00;37.90;;;;;;5053459;28;20534;-56
2022/04/17 11:11:49;;;;;;;6.73;6.60;;;26.00;37.90;;;;;;5053460;28;20453;-55
2022/04/17 11:14:19;;;;;;;6.83;6.73;;;26.00;37.90;;;;;;5053438;28;20471;-57
2022/04/17 11:16:48;;;;;;;6.60;6.50;;;26.00;37.90;;;;;;5053177;28;20480;-56
2022/04/17 11:19:17;;;;;;;7.00;6.90;;;26.00;38.00;;;;;;5053411;28;20436;-56
2022/04/17 11:21:45;;;;;;;7.10;7.00;;;26.00;38.10;;;;;;5052823;28;20966;-58
2022/04/17 11:24:11;;;;;;;7.80;7.60;;;26.00;38.10;;;;;;5053238;28;20487;-59
2022/04/17 11:27:08;;;;;;;6.77;6.67;;;26.00;38.10;;;;;;5053135;28;20517;-55
2022/04/17 11:29:37;;;;;;;6.40;6.20;;;26.00;38.20;;;;;;5052820;28;20995;-52
2022/04/17 11:32:37;;;;;;;6.37;6.27;;;25.90;38.60;;;;;;5053168;28;20947;-52
2022/04/17 11:35:07;;;;;;;7.43;7.23;;;25.90;38.60;;;;;;5053055;28;20448;-55
2022/04/17 11:37:34;;;;;;;7.60;7.40;;;25.90;38.50;;;;;;5054684;28;20448;-62
2022/04/17 11:40:09;;;;;;;6.40;6.30;;;25.90;38.50;;;;;;5052817;28;20947;-62
2022/04/17 11:42:42;;;;;;;6.63;6.53;;;25.90;38.60;;;;;;5053305;28;20509;-62
2022/04/17 11:45:10;;;;;;;7.07;6.90;;;25.90;38.70;;;;;;5053168;28;20448;-61
2022/04/17 11:47:40;;;;;;;6.83;6.63;;;25.90;38.70;;;;;;5052513;28;20448;-62
2022/04/17 11:50:10;;;;;;;6.43;6.33;;;25.80;38.70;;;;;;5052667;28;20444;-62
2022/04/17 11:52:38;;;;;;;6.57;6.37;;;25.90;38.80;;;;;;5053033;28;20444;-59
2022/04/17 11:55:07;;;;;;;7.07;6.87;;;26.10;38.90;;;;;;5052699;28;20942;-62
2022/04/17 11:57:34;;;;;;;7.47;7.27;;;26.10;39.00;;;;;;5052575;28;20824;-59
2022/04/17 12:00:01;;;;;;;7.20;7.00;;;26.20;38.70;;;;;;5054057;28;20451;-60
2022/04/17 12:02:29;;;;;;;6.77;6.60;;;26.20;38.80;;;;;;5052818;28;20501;-61
2022/04/17 12:04:58;;;;;;;7.67;7.47;;;26.40;38.70;;;;;;5053050;28;20448;-52
2022/04/17 12:07:27;;;;;;;7.10;6.90;;;26.50;38.50;;;;;;5052211;28;20444;-54
2022/04/17 12:10:04;;;;;;;7.83;7.63;;;26.60;38.10;;;;;;5052143;28;20445;-58
2022/04/17 12:12:34;;;;;;;6.60;6.40;;;26.70;38.00;;;;;;5052264;28;20444;-49
2022/04/17 12:15:03;;;;;;;6.63;6.50;;;26.80;38.00;;;;;;5052312;28;20441;-54
2022/04/17 12:17:30;;;;;;;6.93;6.83;;;26.80;37.90;;;;;;5052271;28;20490;-57
2022/04/17 12:19:57;;;;;;;7.67;7.30;;;26.80;37.90;;;;;;5052123;28;20436;-57
2022/04/17 12:22:25;;;;;;;6.70;6.60;;;26.90;37.80;;;;;;5052296;28;20480;-47
2022/04/17 12:24:52;;;;;;;6.30;6.20;;;26.90;37.90;;;;;;5052134;28;20443;-47
2022/04/17 12:27:20;;;;;;;7.03;6.93;;;26.80;37.90;;;;;;5051948;28;20444;-52
2022/04/17 12:29:47;;;;;;;6.80;6.70;;;26.80;37.90;;;;;;5051703;28;20476;-50
2022/04/17 12:32:15;;;;;;;7.43;7.33;;;27.00;37.90;;;;;;5051941;28;20445;-46
2022/04/17 12:34:45;;;;;;;6.87;6.67;;;27.10;37.90;;;;;;5052095;28;20460;-55
2022/04/17 12:37:21;;;;;;;6.70;6.60;;;27.00;37.90;;;;;;5051754;28;20452;-53
2022/04/17 12:39:49;;;;;;;7.03;6.93;;;26.90;38.20;;;;;;5051633;28;20504;-59
2022/04/17 12:42:17;;;;;;;7.10;7.00;;;26.80;38.30;;;;;;5051926;28;20440;-60
2022/04/17 12:44:44;;;;;;;6.90;6.80;;;26.80;38.50;;;;;;5051774;28;20563;-54
2022/04/17 12:47:12;;;;;;;7.17;6.97;;;26.70;38.60;;;;;;5051345;28;20448;-55
2022/04/17 12:49:40;;;;;;;6.97;6.87;;;26.70;38.80;;;;;;5051769;28;20613;-56
2022/04/17 12:52:07;;;;;;;6.40;6.30;;;26.60;38.70;;;;;;5051792;28;20639;-53
2022/04/17 12:54:36;;;;;;;6.87;6.70;;;26.80;38.90;;;;;;5051515;28;20471;-48
2022/04/17 12:57:08;;;;;;;6.90;6.70;;;26.80;38.90;;;;;;5051248;28;20472;-49
2022/04/17 12:59:41;;;;;;;7.03;6.83;;;26.80;38.90;;;;;;5051569;28;20437;-47
2022/04/17 13:02:13;;;;;;;7.33;7.13;;;26.80;39.20;;;;;;5051658;28;20780;-65
2022/04/17 13:04:43;;;;;;;6.40;6.30;;;26.70;39.30;;;;;;5051580;28;20859;-59
2022/04/17 13:07:13;;;;;;;6.33;6.23;;;26.70;39.20;;;;;;5051175;28;20448;-45
2022/04/17 13:09:49;;;;;;;6.70;6.60;;;26.60;39.20;;;;;;5051514;28;20484;-63
2022/04/17 13:12:32;;;;;;;6.90;6.70;;;26.60;39.30;;;;;;5051359;28;20455;-49